createdAt,value
2023-08-07T00:00:26.079Z,13.36
2023-08-07T00:02:52.926Z,13.38
2023-08-07T00:05:19.764Z,13.39
2023-08-07T00:07:47.481Z,13.39
2023-08-07T00:10:15.730Z,13.40
2023-08-07T00:12:42.654Z,13.44
2023-08-07T00:15:10.770Z,13.31
2023-08-07T00:17:38.216Z,13.36
2023-08-07T00:20:07.811Z,13.33
2023-08-07T00:22:34.557Z,13.31
2023-08-07T00:25:02.639Z,13.24
2023-08-07T00:27:29.341Z,13.21
2023-08-07T00:29:58.010Z,13.25
2023-08-07T00:32:29.736Z,13.23
2023-08-07T00:34:56.564Z,13.26
2023-08-07T00:37:23.684Z,13.19
2023-08-07T00:39:51.387Z,13.16
2023-08-07T00:42:18.335Z,13.20
2023-08-07T00:44:46.431Z,13.20
2023-08-07T00:47:15.614Z,13.14
2023-08-07T00:49:43.653Z,13.15
2023-08-07T00:52:11.753Z,13.27
2023-08-07T00:54:38.527Z,13.27
2023-08-07T00:57:12.697Z,13.26
2023-08-07T00:59:43.840Z,13.26
2023-08-07T01:02:13.539Z,13.28
2023-08-07T01:04:41.329Z,13.25
2023-08-07T01:07:08.489Z,13.28
2023-08-07T01:09:35.204Z,13.24
2023-08-07T01:12:17.360Z,13.27
2023-08-07T01:15:06.830Z,13.25
2023-08-07T01:17:36.114Z,13.22
2023-08-07T01:20:03.490Z,13.21
2023-08-07T01:22:30.399Z,13.22
2023-08-07T01:24:57.833Z,13.19
2023-08-07T01:27:36.612Z,13.17
2023-08-07T01:30:12.606Z,13.28
2023-08-07T01:32:56.441Z,13.23
2023-08-07T01:35:29.173Z,13.27
2023-08-07T01:37:57.384Z,13.19
2023-08-07T01:40:24.934Z,13.28
2023-08-07T01:42:51.748Z,13.20
2023-08-07T01:45:29.789Z,13.20
2023-08-07T01:47:59.623Z,13.28
2023-08-07T01:50:26.623Z,13.27
2023-08-07T01:52:53.917Z,13.19
2023-08-07T01:55:22.676Z,13.18
2023-08-07T01:57:49.319Z,13.27
2023-08-07T02:00:19.067Z,13.28
2023-08-07T02:02:48.932Z,13.18
2023-08-07T02:05:18.351Z,13.13
2023-08-07T02:07:46.044Z,13.08
2023-08-07T02:10:12.682Z,13.00
2023-08-07T02:12:40.529Z,12.98
2023-08-07T02:15:08.540Z,12.89
2023-08-07T02:17:37.093Z,12.90
2023-08-07T02:20:05.484Z,12.92
2023-08-07T02:22:32.069Z,12.88
2023-08-07T02:24:59.025Z,12.87
2023-08-07T02:27:25.622Z,12.86
2023-08-07T02:29:52.242Z,12.89
2023-08-07T02:32:19.242Z,12.82
2023-08-07T02:34:46.106Z,12.83
2023-08-07T02:37:14.187Z,12.82
2023-08-07T02:39:40.949Z,12.88
2023-08-07T02:42:09.160Z,12.82
2023-08-07T02:44:35.927Z,12.81
2023-08-07T02:47:04.714Z,12.82
2023-08-07T02:49:35.093Z,12.88
2023-08-07T02:52:03.780Z,12.88
2023-08-07T02:54:31.279Z,12.91
2023-08-07T02:57:00.638Z,12.90
2023-08-07T02:59:29.304Z,12.92
2023-08-07T03:01:55.972Z,12.93
2023-08-07T03:04:23.098Z,12.91
2023-08-07T03:06:49.807Z,12.92
2023-08-07T03:09:18.628Z,12.89
2023-08-07T03:11:46.214Z,12.87
2023-08-07T03:14:12.841Z,12.88
2023-08-07T03:16:39.412Z,12.83
2023-08-07T03:19:07.050Z,12.86
2023-08-07T03:21:33.718Z,12.82
2023-08-07T03:24:00.889Z,12.77
2023-08-07T03:26:28.253Z,12.77
2023-08-07T03:28:55.411Z,12.78
2023-08-07T03:31:22.136Z,12.77
2023-08-07T03:33:50.429Z,12.84
2023-08-07T03:36:17.246Z,12.81
2023-08-07T03:38:45.215Z,12.79
2023-08-07T03:41:11.874Z,12.83
2023-08-07T03:43:38.481Z,12.85
2023-08-07T03:46:05.269Z,12.87
2023-08-07T03:48:32.751Z,12.84
2023-08-07T03:51:09.961Z,12.83
2023-08-07T03:53:38.040Z,12.83
2023-08-07T03:56:04.974Z,12.83
2023-08-07T03:58:31.640Z,12.82
2023-08-07T04:01:00.222Z,12.81
2023-08-07T04:03:27.073Z,12.81
2023-08-07T04:05:55.718Z,12.84
2023-08-07T04:08:23.235Z,12.82
2023-08-07T04:11:04.893Z,12.91
2023-08-07T04:13:32.035Z,12.96
2023-08-07T04:15:59.037Z,12.99
2023-08-07T04:18:25.762Z,12.99
2023-08-07T04:20:58.687Z,13.00
2023-08-07T04:23:25.648Z,12.95
2023-08-07T04:25:53.570Z,13.02
2023-08-07T04:28:20.315Z,12.97
2023-08-07T04:30:51.314Z,13.08
2023-08-07T04:33:19.544Z,13.13
2023-08-07T04:35:48.570Z,13.16
2023-08-07T04:38:16.174Z,13.19
2023-08-07T04:40:50.574Z,13.22
2023-08-07T04:43:18.509Z,13.23
2023-08-07T04:45:46.615Z,13.27
2023-08-07T04:48:15.732Z,13.24
2023-08-07T04:50:42.623Z,13.29
2023-08-07T04:53:10.650Z,13.26
2023-08-07T04:55:39.879Z,13.35
2023-08-07T04:58:06.961Z,13.36
2023-08-07T05:00:34.321Z,13.43
2023-08-07T05:03:02.308Z,13.32
2023-08-07T05:05:29.116Z,13.37
2023-08-07T05:07:56.584Z,13.36
2023-08-07T05:10:25.436Z,13.38
2023-08-07T05:12:58.528Z,13.39
2023-08-07T05:15:29.146Z,13.38
2023-08-07T05:17:57.208Z,13.40
2023-08-07T05:20:24.162Z,13.48
2023-08-07T05:22:50.878Z,13.42
2023-08-07T05:25:18.104Z,13.50
2023-08-07T05:27:49.004Z,13.52
2023-08-07T05:30:16.050Z,13.48
2023-08-07T05:32:43.992Z,13.45
2023-08-07T05:35:10.759Z,13.56
2023-08-07T05:37:41.405Z,13.53
2023-08-07T05:40:09.069Z,13.50
2023-08-07T05:42:36.588Z,13.52
2023-08-07T05:45:04.958Z,13.45
2023-08-07T05:47:33.811Z,13.60
2023-08-07T05:50:00.438Z,13.58
2023-08-07T05:52:27.365Z,13.53
2023-08-07T05:54:54.008Z,13.53
2023-08-07T05:57:21.276Z,13.57
2023-08-07T05:59:49.099Z,13.49
2023-08-07T06:02:16.152Z,13.45
2023-08-07T06:04:45.057Z,13.49
2023-08-07T06:07:11.948Z,13.45
2023-08-07T06:09:39.152Z,13.48
2023-08-07T06:12:06.040Z,13.48
2023-08-07T06:14:33.687Z,13.47
2023-08-07T06:17:02.373Z,13.35
2023-08-07T06:19:32.723Z,13.38
2023-08-07T06:22:01.920Z,13.23
2023-08-07T06:24:29.266Z,13.26
2023-08-07T06:26:56.274Z,13.21
2023-08-07T06:29:25.956Z,13.24
2023-08-07T06:31:52.903Z,13.24
2023-08-07T06:34:19.816Z,13.23
2023-08-07T06:36:46.529Z,13.25
2023-08-07T06:39:14.626Z,13.38
2023-08-07T06:41:41.597Z,13.37
2023-08-07T06:44:08.463Z,13.34
2023-08-07T06:46:35.200Z,13.43
2023-08-07T06:49:02.798Z,13.43
2023-08-07T06:51:30.629Z,13.49
2023-08-07T06:53:57.485Z,13.52
2023-08-07T06:56:24.123Z,13.54
2023-08-07T06:58:50.907Z,13.56
2023-08-07T07:01:25.844Z,13.58
2023-08-07T07:03:54.795Z,13.59
2023-08-07T07:06:22.060Z,13.60
2023-08-07T07:08:48.916Z,13.75
2023-08-07T07:11:16.257Z,13.72
2023-08-07T07:13:43.264Z,13.68
2023-08-07T07:16:09.937Z,13.76
2023-08-07T07:18:36.800Z,13.77
2023-08-07T07:21:03.862Z,13.75
2023-08-07T07:23:30.898Z,13.83
2023-08-07T07:25:59.308Z,13.80
2023-08-07T07:28:26.085Z,13.86
2023-08-07T07:30:55.606Z,13.96
2023-08-07T07:33:23.367Z,14.01
2023-08-07T07:35:50.361Z,14.01
2023-08-07T07:38:17.346Z,14.25
2023-08-07T07:40:44.312Z,14.37
2023-08-07T07:43:15.250Z,14.30
2023-08-07T07:45:42.281Z,14.43
2023-08-07T07:48:12.179Z,14.35
2023-08-07T07:50:39.399Z,14.23
2023-08-07T07:53:09.522Z,14.22
2023-08-07T07:55:36.783Z,14.18
2023-08-07T07:58:03.707Z,14.21
2023-08-07T08:00:31.552Z,14.24
2023-08-07T08:02:58.695Z,14.37
2023-08-07T08:05:25.538Z,14.49
2023-08-07T08:07:53.474Z,14.61
2023-08-07T08:10:20.145Z,14.56
2023-08-07T08:12:48.362Z,14.56
2023-08-07T08:15:15.775Z,14.46
2023-08-07T08:17:43.276Z,14.35
2023-08-07T08:20:12.048Z,14.27
2023-08-07T08:22:39.799Z,14.19
2023-08-07T08:25:07.858Z,14.36
2023-08-07T08:27:36.693Z,14.36
2023-08-07T08:30:06.985Z,14.38
2023-08-07T08:32:34.112Z,14.48
2023-08-07T08:35:00.984Z,14.57
2023-08-07T08:37:27.778Z,14.71
2023-08-07T08:39:55.810Z,14.77
2023-08-07T08:42:23.642Z,14.61
2023-08-07T08:44:56.101Z,14.83
2023-08-07T08:47:24.227Z,14.54
2023-08-07T08:50:03.844Z,14.49
2023-08-07T08:52:32.821Z,14.83
2023-08-07T08:55:00.626Z,14.48
2023-08-07T08:57:28.904Z,14.50
2023-08-07T08:59:57.975Z,14.48
2023-08-07T09:02:24.697Z,14.51
2023-08-07T09:04:51.962Z,14.39
2023-08-07T09:07:21.207Z,14.39
2023-08-07T09:09:48.974Z,14.51
2023-08-07T09:12:29.289Z,14.66
2023-08-07T09:14:58.562Z,14.59
2023-08-07T09:17:28.434Z,14.66
2023-08-07T09:19:57.170Z,14.48
2023-08-07T09:22:23.887Z,14.62
2023-08-07T09:24:54.471Z,14.55
2023-08-07T09:27:21.810Z,14.78
2023-08-07T09:29:49.909Z,14.93
2023-08-07T09:32:16.975Z,14.97
2023-08-07T09:34:44.942Z,15.07
2023-08-07T09:37:14.670Z,14.68
2023-08-07T09:39:41.835Z,14.79
2023-08-07T09:42:19.592Z,14.78
2023-08-07T09:44:47.655Z,14.71
2023-08-07T09:47:19.668Z,14.60
2023-08-07T09:49:47.399Z,14.52
2023-08-07T09:52:16.762Z,14.52
2023-08-07T09:54:43.752Z,14.78
2023-08-07T09:57:10.506Z,14.70
2023-08-07T09:59:37.848Z,14.75
2023-08-07T10:02:06.557Z,14.75
2023-08-07T10:04:33.748Z,14.66
2023-08-07T10:07:02.749Z,14.93
2023-08-07T10:09:31.222Z,14.64
2023-08-07T10:11:59.365Z,14.84
2023-08-07T10:14:28.929Z,15.04
2023-08-07T10:16:56.729Z,14.95
2023-08-07T10:19:25.791Z,14.97
2023-08-07T10:21:53.350Z,14.95
2023-08-07T10:24:20.740Z,15.13
2023-08-07T10:26:49.753Z,15.19
2023-08-07T10:29:21.219Z,15.14
2023-08-07T10:31:48.881Z,14.83
2023-08-07T10:34:15.755Z,14.75
2023-08-07T10:36:42.671Z,14.84
2023-08-07T10:39:11.780Z,14.67
2023-08-07T10:41:50.032Z,14.85
2023-08-07T10:44:25.074Z,14.83
2023-08-07T10:46:58.114Z,14.69
2023-08-07T10:49:38.536Z,14.58
2023-08-07T10:52:09.226Z,14.77
2023-08-07T10:54:44.435Z,14.75
2023-08-07T10:57:14.390Z,14.92
2023-08-07T11:00:02.395Z,14.76
2023-08-07T11:02:34.410Z,14.63
2023-08-07T11:05:01.700Z,14.65
2023-08-07T11:07:30.500Z,14.69
2023-08-07T11:09:58.708Z,14.83
2023-08-07T11:12:27.621Z,14.97
2023-08-07T11:14:58.219Z,15.04
2023-08-07T11:17:29.809Z,15.22
2023-08-07T11:19:57.274Z,15.04
2023-08-07T11:22:24.755Z,14.89
2023-08-07T11:24:52.971Z,15.02
2023-08-07T11:27:22.616Z,14.95
2023-08-07T11:29:50.629Z,15.21
2023-08-07T11:32:17.588Z,15.18
2023-08-07T11:34:51.646Z,15.23
2023-08-07T11:37:19.906Z,15.03
2023-08-07T11:39:47.188Z,15.05
2023-08-07T11:42:15.076Z,14.99
2023-08-07T11:44:43.126Z,14.96
2023-08-07T11:47:12.503Z,15.01
2023-08-07T11:49:40.185Z,15.00
2023-08-07T11:52:07.260Z,15.09
2023-08-07T11:54:33.892Z,15.30
2023-08-07T11:57:02.420Z,15.15
2023-08-07T11:59:29.181Z,15.22
2023-08-07T12:01:56.307Z,15.22
2023-08-07T12:04:23.508Z,15.50
2023-08-07T12:06:58.409Z,15.57
2023-08-07T12:09:31.020Z,15.62
2023-08-07T12:11:58.968Z,15.90
2023-08-07T12:14:32.294Z,15.88
2023-08-07T12:16:59.511Z,16.34
2023-08-07T12:19:37.165Z,16.21
2023-08-07T12:22:05.242Z,16.36
2023-08-07T12:24:32.217Z,16.91
2023-08-07T12:26:59.097Z,17.04
2023-08-07T12:29:30.148Z,17.03
2023-08-07T12:31:57.282Z,17.59
2023-08-07T12:36:54.170Z,17.17
2023-08-07T12:39:57.777Z,18.21
2023-08-07T12:44:39.013Z,20.60
2023-08-07T12:47:07.464Z,20.79
2023-08-07T12:49:35.233Z,20.41
2023-08-07T12:52:04.841Z,19.54
2023-08-07T12:54:31.638Z,19.61
2023-08-07T12:56:59.172Z,20.92
2023-08-07T12:59:29.224Z,21.17
2023-08-07T13:01:57.204Z,21.78
2023-08-07T13:04:24.659Z,21.22
2023-08-07T13:06:51.631Z,20.14
2023-08-07T13:09:19.464Z,19.69
2023-08-07T13:11:47.419Z,18.88
2023-08-07T13:14:15.155Z,18.81
2023-08-07T13:16:42.205Z,19.44
2023-08-07T13:19:08.928Z,19.49
2023-08-07T13:21:37.037Z,20.83
2023-08-07T13:24:03.903Z,20.46
2023-08-07T13:26:32.411Z,20.76
2023-08-07T13:29:02.385Z,20.82
2023-08-07T13:31:30.263Z,20.46
2023-08-07T13:33:57.471Z,20.58
2023-08-07T13:36:24.679Z,24.11
2023-08-07T13:38:53.205Z,21.79
2023-08-07T13:41:22.030Z,21.64
2023-08-07T13:43:52.195Z,21.58
2023-08-07T13:46:21.315Z,21.56
2023-08-07T13:48:53.972Z,21.35
2023-08-07T13:51:21.972Z,20.52
2023-08-07T13:53:48.594Z,19.86
2023-08-07T13:56:16.467Z,20.47
2023-08-07T13:58:43.626Z,20.13
2023-08-07T14:01:10.297Z,20.28
2023-08-07T14:03:36.994Z,19.88
2023-08-07T14:06:04.485Z,20.02
2023-08-07T14:08:31.637Z,19.96
2023-08-07T14:10:59.645Z,20.20
2023-08-07T14:13:27.734Z,20.12
2023-08-07T14:15:55.110Z,20.45
2023-08-07T14:18:22.217Z,20.47
2023-08-07T14:23:35.800Z,20.07
2023-08-07T14:26:02.964Z,19.77
2023-08-07T14:28:30.281Z,20.20
2023-08-07T14:31:01.110Z,20.06
2023-08-07T14:33:29.644Z,19.88
2023-08-07T14:35:56.303Z,20.01
2023-08-07T14:38:24.184Z,20.06
2023-08-07T14:40:51.352Z,20.18
2023-08-07T14:43:18.987Z,20.60
2023-08-07T14:45:45.579Z,20.45
2023-08-07T14:48:14.929Z,20.41
2023-08-07T14:50:42.572Z,20.55
2023-08-07T14:53:09.487Z,20.23
2023-08-07T14:55:37.598Z,20.07
2023-08-07T14:58:10.423Z,20.35
2023-08-07T15:00:37.225Z,19.99
2023-08-07T15:03:04.737Z,20.58
2023-08-07T15:05:31.724Z,20.33
2023-08-07T15:08:01.042Z,20.38
2023-08-07T15:10:27.929Z,20.39
2023-08-07T15:12:57.166Z,20.38
2023-08-07T15:15:24.179Z,20.32
2023-08-07T15:17:51.388Z,20.32
2023-08-07T15:20:22.441Z,20.12
2023-08-07T15:22:49.656Z,20.13
2023-08-07T15:25:17.875Z,19.81
2023-08-07T15:27:44.698Z,19.99
2023-08-07T15:30:12.682Z,19.63
2023-08-07T15:32:42.494Z,20.13
2023-08-07T15:35:10.654Z,20.07
2023-08-07T15:37:37.365Z,20.20
2023-08-07T15:40:04.211Z,19.92
2023-08-07T15:42:30.956Z,20.27
2023-08-07T15:44:59.428Z,20.17
2023-08-07T15:47:26.107Z,20.01
2023-08-07T15:49:53.424Z,19.92
2023-08-07T15:52:21.077Z,19.97
2023-08-07T15:54:49.826Z,19.56
2023-08-07T15:57:18.705Z,19.65
2023-08-07T15:59:47.420Z,19.56
2023-08-07T16:02:16.068Z,19.91
2023-08-07T16:04:42.933Z,19.75
2023-08-07T16:07:14.720Z,19.60
2023-08-07T16:09:41.524Z,20.05
2023-08-07T16:12:08.280Z,20.29
2023-08-07T16:14:36.315Z,20.42
2023-08-07T16:17:05.812Z,20.58
2023-08-07T16:19:32.847Z,20.27
2023-08-07T16:21:59.650Z,20.35
2023-08-07T16:24:34.292Z,20.12
2023-08-07T16:27:03.699Z,19.97
2023-08-07T16:29:31.368Z,19.80
2023-08-07T16:32:06.040Z,19.69
2023-08-07T16:34:34.540Z,19.59
2023-08-07T16:37:04.141Z,19.53
2023-08-07T16:39:31.026Z,19.55
2023-08-07T16:41:58.223Z,19.51
2023-08-07T16:44:29.499Z,19.61
2023-08-07T16:47:22.122Z,19.59
2023-08-07T16:49:50.112Z,19.30
2023-08-07T16:52:20.514Z,19.40
2023-08-07T16:54:50.670Z,19.27
2023-08-07T16:57:20.283Z,19.19
2023-08-07T16:59:48.425Z,19.08
2023-08-07T17:02:16.389Z,18.99
2023-08-07T17:04:43.106Z,18.98
2023-08-07T17:07:12.055Z,18.87
2023-08-07T17:09:38.967Z,18.96
2023-08-07T17:12:07.982Z,19.08
2023-08-07T17:14:40.458Z,19.18
2023-08-07T17:17:07.195Z,19.19
2023-08-07T17:19:33.992Z,19.26
2023-08-07T17:22:01.150Z,19.32
2023-08-07T17:24:29.842Z,19.45
2023-08-07T17:26:57.018Z,19.41
2023-08-07T17:29:24.199Z,19.28
2023-08-07T17:31:52.750Z,19.34
2023-08-07T17:34:19.488Z,18.98
2023-08-07T17:36:46.225Z,18.95
2023-08-07T17:39:14.888Z,18.67
2023-08-07T17:41:41.679Z,18.61
2023-08-07T17:44:10.341Z,18.45
2023-08-07T17:46:38.455Z,18.43
2023-08-07T17:49:06.136Z,18.43
2023-08-07T17:51:33.734Z,18.46
2023-08-07T17:54:01.783Z,18.51
2023-08-07T17:56:28.619Z,18.28
2023-08-07T17:58:56.077Z,18.29
2023-08-07T18:01:23.155Z,18.18
2023-08-07T18:03:53.039Z,18.04
2023-08-07T18:07:12.774Z,17.94
2023-08-07T18:09:40.041Z,17.77
2023-08-07T18:12:07.385Z,17.55
2023-08-07T18:15:03.443Z,17.34
2023-08-07T18:17:33.278Z,17.17
2023-08-07T18:20:01.856Z,16.90
2023-08-07T18:22:32.214Z,16.82
2023-08-07T18:25:00.499Z,16.66
2023-08-07T18:27:27.717Z,16.52
2023-08-07T18:29:54.752Z,16.42
2023-08-07T18:32:22.254Z,16.33
2023-08-07T18:35:24.811Z,16.30
2023-08-07T18:37:58.764Z,16.16
2023-08-07T18:40:25.554Z,16.04
2023-08-07T18:42:54.769Z,15.88
2023-08-07T18:45:21.621Z,15.95
2023-08-07T18:47:53.106Z,15.72
2023-08-07T18:50:26.508Z,15.53
2023-08-07T18:52:55.199Z,15.54
2023-08-07T18:55:21.890Z,15.38
2023-08-07T18:57:49.186Z,15.14
2023-08-07T19:00:16.396Z,14.84
2023-08-07T19:02:47.079Z,14.79
2023-08-07T19:05:14.108Z,15.06
2023-08-07T19:07:43.030Z,14.86
2023-08-07T19:10:11.626Z,14.67
2023-08-07T19:12:39.506Z,14.69
2023-08-07T19:15:06.899Z,14.45
2023-08-07T19:17:35.106Z,14.31
2023-08-07T19:20:05.027Z,14.16
2023-08-07T19:22:34.736Z,14.28
2023-08-07T19:25:03.128Z,14.27
2023-08-07T19:27:30.963Z,14.17
2023-08-07T19:29:59.848Z,14.31
2023-08-07T19:32:31.566Z,14.26
2023-08-07T19:34:59.344Z,14.28
2023-08-07T19:37:28.057Z,14.47
2023-08-07T19:39:55.498Z,14.47
2023-08-07T19:42:25.918Z,14.33
2023-08-07T19:44:52.629Z,14.10
2023-08-07T19:47:35.502Z,14.11
2023-08-07T19:50:07.451Z,14.20
2023-08-07T19:52:34.134Z,14.09
2023-08-07T19:55:05.932Z,14.10
2023-08-07T19:57:36.110Z,13.94
2023-08-07T20:00:09.740Z,14.16
2023-08-07T20:02:37.788Z,14.20
2023-08-07T20:05:04.875Z,14.20
2023-08-07T20:07:32.844Z,14.04
2023-08-07T20:10:00.903Z,14.07
2023-08-07T20:12:32.311Z,13.90
2023-08-07T20:15:02.426Z,13.82
2023-08-07T20:17:30.799Z,13.66
2023-08-07T20:19:57.598Z,13.79
2023-08-07T20:22:26.837Z,13.94
2023-08-07T20:24:55.947Z,14.11
2023-08-07T20:27:22.831Z,14.10
2023-08-07T20:29:49.537Z,14.06
2023-08-07T20:32:20.288Z,14.11
2023-08-07T20:34:46.933Z,14.39
2023-08-07T20:37:15.032Z,14.50
2023-08-07T20:39:45.104Z,14.68
2023-08-07T20:42:12.286Z,15.04
2023-08-07T20:44:39.103Z,15.23
2023-08-07T20:47:06.638Z,15.24
2023-08-07T20:49:36.412Z,15.31
2023-08-07T20:52:03.269Z,15.14
2023-08-07T20:54:29.881Z,15.18
2023-08-07T20:56:57.862Z,15.11
2023-08-07T20:59:27.322Z,14.98
2023-08-07T21:01:55.453Z,14.93
2023-08-07T21:04:24.665Z,14.61
2023-08-07T21:06:53.676Z,14.47
2023-08-07T21:09:21.463Z,14.52
2023-08-07T21:11:49.682Z,14.31
2023-08-07T21:14:17.184Z,13.95
2023-08-07T21:16:57.219Z,14.04
2023-08-07T21:19:25.476Z,13.96
2023-08-07T21:21:56.473Z,14.02
2023-08-07T21:24:23.342Z,13.98
2023-08-07T21:26:50.226Z,13.76
2023-08-07T21:29:16.977Z,13.66
2023-08-07T21:31:43.837Z,13.50
2023-08-07T21:34:14.302Z,13.65
2023-08-07T21:36:50.183Z,13.65
2023-08-07T21:39:16.819Z,13.62
2023-08-07T21:41:43.913Z,13.47
2023-08-07T21:44:13.350Z,13.61
2023-08-07T21:46:40.904Z,13.58
2023-08-07T21:49:09.811Z,13.53
2023-08-07T21:51:36.543Z,13.58
2023-08-07T21:54:05.805Z,13.60
2023-08-07T21:56:32.781Z,13.45
2023-08-07T21:59:06.724Z,13.80
2023-08-07T22:01:35.929Z,13.71
2023-08-07T22:04:04.897Z,13.91
2023-08-07T22:06:37.547Z,14.36
2023-08-07T22:09:08.124Z,14.72
2023-08-07T22:11:35.188Z,14.82
2023-08-07T22:14:02.969Z,14.78
2023-08-07T22:16:29.769Z,14.80
2023-08-07T22:18:56.440Z,14.82
2023-08-07T22:21:24.079Z,14.93
2023-08-07T22:23:51.288Z,14.82
2023-08-07T22:26:18.410Z,14.54
2023-08-07T22:28:46.865Z,14.27
2023-08-07T22:31:13.832Z,14.28
2023-08-07T22:33:40.889Z,14.36
2023-08-07T22:36:12.357Z,14.31
2023-08-07T22:38:42.181Z,14.22
2023-08-07T22:41:10.544Z,14.27
2023-08-07T22:43:39.298Z,14.30
2023-08-07T22:46:08.180Z,14.49
2023-08-07T22:48:34.903Z,14.42
2023-08-07T22:51:06.019Z,14.49
2023-08-07T22:53:32.729Z,14.48
2023-08-07T22:56:02.981Z,14.50
2023-08-07T22:58:37.580Z,14.46
2023-08-07T23:01:04.232Z,14.23
2023-08-07T23:03:35.570Z,14.03
2023-08-07T23:06:03.638Z,14.14
2023-08-07T23:08:30.654Z,14.28
2023-08-07T23:10:57.279Z,14.18
2023-08-07T23:13:23.857Z,14.16
2023-08-07T23:15:52.080Z,14.30
2023-08-07T23:18:19.939Z,14.22
2023-08-07T23:20:46.604Z,14.21
2023-08-07T23:23:14.277Z,14.24
2023-08-07T23:25:40.925Z,14.11
2023-08-07T23:28:09.067Z,14.11
2023-08-07T23:30:36.485Z,14.09
2023-08-07T23:33:03.704Z,14.02
2023-08-07T23:35:30.361Z,13.86
2023-08-07T23:38:02.294Z,13.85
2023-08-07T23:40:28.995Z,13.58
2023-08-07T23:42:55.609Z,13.55
2023-08-07T23:45:22.275Z,13.28
2023-08-07T23:47:49.184Z,13.18
2023-08-07T23:50:18.412Z,13.24
2023-08-07T23:52:45.073Z,13.09
2023-08-07T23:55:14.933Z,13.15
2023-08-07T23:57:45.229Z,12.88
